KDRO/DRO METAR and TAF weather

Enter ICAO airport designator
Station Type Date Time Source
KDRO METAR 2022/01/29 00:53 UTC NOAA

KDRO 290053Z AUTO 10004KT 10SM CLR 01/M10 A3046 RMK AO2 SLP370 T00061100


Station Type Date Time Source
KDRO Decoded METAR 2022/01/29 00:53 UTC NOAA

DURANGO-LA PLATA COUNTY AIRPORT , CO, United States (KDRO) 37-09N 107-46W 2035M
Jan 28, 2022 - 07:53 PM EST / 2022.01.29 0053 UTC
Wind: from the E (100 degrees) at 5 MPH (4 KT):0
Visibility: 10 mile(s):0
Sky conditions: clear
Temperature: 33.1 F (0.6 C)
Windchill: 28 F (-2 C):1
Dew Point: 14.0 F (-10.0 C)
Relative Humidity: 44%
Pressure (altimeter): 30.46 in. Hg (1031 hPa)
ob: KDRO 290053Z AUTO 10004KT 10SM CLR 01/M10 A3046 RMK AO2 SLP370 T00061100
cycle: 1

Station Type Date Time Source
KDRO TAF 2022/01/28 18:22 UTC NOAA

TAF KDRO 281720Z 2818/2918 VRB04KT P6SM SKC

Example: see airport list